sensor_id;sensor_type;location;lat;lon;timestamp;pressure;altitude;pressure_sealevel;temperature;humidity
60089;BME280;45961;53.574;55.878;2023-01-29T00:00:21;100818.31;;;-10.32;83.18
60089;BME280;45961;53.574;55.878;2023-01-29T00:01:22;100812.72;;;-10.21;83.17
60089;BME280;45961;53.574;55.878;2023-01-29T00:02:23;100816.50;;;-10.42;83.07
60089;BME280;45961;53.574;55.878;2023-01-29T00:03:24;100810.16;;;-10.47;83.10
60089;BME280;45961;53.574;55.878;2023-01-29T00:04:25;100823.91;;;-10.35;83.16
60089;BME280;45961;53.574;55.878;2023-01-29T00:05:25;100824.03;;;-10.33;83.15
60089;BME280;45961;53.574;55.878;2023-01-29T00:06:27;100797.69;;;-10.38;83.19
60089;BME280;45961;53.574;55.878;2023-01-29T00:07:27;100816.13;;;-10.21;83.35
60089;BME280;45961;53.574;55.878;2023-01-29T00:08:29;100827.19;;;-10.27;83.29
60089;BME280;45961;53.574;55.878;2023-01-29T00:09:30;100826.84;;;-10.22;83.07
60089;BME280;45961;53.574;55.878;2023-01-29T00:10:31;100826.81;;;-10.39;83.10
60089;BME280;45961;53.574;55.878;2023-01-29T00:11:32;100825.84;;;-10.32;83.14
60089;BME280;45961;53.574;55.878;2023-01-29T00:12:34;100825.09;;;-10.31;83.34
60089;BME280;45961;53.574;55.878;2023-01-29T00:13:35;100825.06;;;-10.40;83.34
60089;BME280;45961;53.574;55.878;2023-01-29T00:14:37;100824.53;;;-10.29;83.38
60089;BME280;45961;53.574;55.878;2023-01-29T00:15:38;100824.34;;;-10.30;83.14
60089;BME280;45961;53.574;55.878;2023-01-29T00:16:39;100824.63;;;-10.36;83.59
60089;BME280;45961;53.574;55.878;2023-01-29T00:17:41;100830.66;;;-10.34;83.32
60089;BME280;45961;53.574;55.878;2023-01-29T00:18:42;100817.59;;;-10.31;83.30
60089;BME280;45961;53.574;55.878;2023-01-29T00:19:43;100793.94;;;-10.51;83.09
60089;BME280;45961;53.574;55.878;2023-01-29T00:20:44;100831.25;;;-10.36;83.08
60089;BME280;45961;53.574;55.878;2023-01-29T00:21:45;100826.81;;;-10.39;83.19
60089;BME280;45961;53.574;55.878;2023-01-29T00:22:46;100825.06;;;-10.40;83.16
60089;BME280;45961;53.574;55.878;2023-01-29T00:23:48;100818.03;;;-10.27;83.30
60089;BME280;45961;53.574;55.878;2023-01-29T00:24:49;100817.28;;;-10.34;83.06
60089;BME280;45961;53.574;55.878;2023-01-29T00:25:51;100817.91;;;-10.28;83.11
60089;BME280;45961;53.574;55.878;2023-01-29T00:26:52;100810.38;;;-10.20;83.17
60089;BME280;45961;53.574;55.878;2023-01-29T00:27:52;100812.47;;;-10.15;83.01
60089;BME280;45961;53.574;55.878;2023-01-29T00:28:54;100815.41;;;-10.28;82.80
60089;BME280;45961;53.574;55.878;2023-01-29T00:30:00;100804.44;;;-10.37;82.81
60089;BME280;45961;53.574;55.878;2023-01-29T00:31:18;100811.38;;;-10.35;83.04
60089;BME280;45961;53.574;55.878;2023-01-29T00:32:19;100824.84;;;-10.50;83.05
60089;BME280;45961;53.574;55.878;2023-01-29T00:33:23;100812.66;;;-10.47;83.15
60089;BME280;45961;53.574;55.878;2023-01-29T00:34:24;100818.53;;;-10.47;83.12
60089;BME280;45961;53.574;55.878;2023-01-29T00:35:25;100825.03;;;-10.49;83.02
60089;BME280;45961;53.574;55.878;2023-01-29T00:36:26;100793.63;;;-10.54;83.41
60089;BME280;45961;53.574;55.878;2023-01-29T00:37:27;100827.81;;;-10.46;83.24
60089;BME280;45961;53.574;55.878;2023-01-29T00:38:29;100820.31;;;-10.46;83.43
60089;BME280;45961;53.574;55.878;2023-01-29T00:39:30;100819.00;;;-10.42;83.42
60089;BME280;45961;53.574;55.878;2023-01-29T00:40:38;100821.97;;;-10.37;83.46
60089;BME280;45961;53.574;55.878;2023-01-29T00:41:58;100816.47;;;-10.51;83.28
60089;BME280;45961;53.574;55.878;2023-01-29T00:43:37;100824.19;;;-10.40;83.27
60089;BME280;45961;53.574;55.878;2023-01-29T00:44:57;100810.53;;;-10.60;83.31
60089;BME280;45961;53.574;55.878;2023-01-29T00:45:58;100825.69;;;-10.58;83.29
60089;BME280;45961;53.574;55.878;2023-01-29T00:46:59;100825.09;;;-10.64;83.22
60089;BME280;45961;53.574;55.878;2023-01-29T00:48:01;100814.84;;;-10.75;83.36
60089;BME280;45961;53.574;55.878;2023-01-29T00:49:03;100822.31;;;-10.59;83.39
60089;BME280;45961;53.574;55.878;2023-01-29T00:50:08;100814.94;;;-10.57;83.39
60089;BME280;45961;53.574;55.878;2023-01-29T00:51:09;100824.59;;;-10.45;83.41
60089;BME280;45961;53.574;55.878;2023-01-29T00:52:10;100820.63;;;-10.42;83.34
60089;BME280;45961;53.574;55.878;2023-01-29T00:53:23;100828.38;;;-10.57;83.23
60089;BME280;45961;53.574;55.878;2023-01-29T00:54:24;100813.28;;;-10.65;83.31
60089;BME280;45961;53.574;55.878;2023-01-29T00:55:25;100810.22;;;-10.63;83.45
60089;BME280;45961;53.574;55.878;2023-01-29T00:56:28;100810.44;;;-10.53;83.42
60089;BME280;45961;53.574;55.878;2023-01-29T00:57:30;100816.34;;;-10.43;83.31
60089;BME280;45961;53.574;55.878;2023-01-29T00:58:32;100812.63;;;-10.56;83.26
60089;BME280;45961;53.574;55.878;2023-01-29T00:59:36;100811.09;;;-10.62;83.38
60089;BME280;45961;53.574;55.878;2023-01-29T01:00:37;100818.19;;;-10.58;83.41
60089;BME280;45961;53.574;55.878;2023-01-29T01:01:38;100815.69;;;-10.58;83.51
60089;BME280;45961;53.574;55.878;2023-01-29T01:02:57;100824.06;;;-10.58;83.36
60089;BME280;45961;53.574;55.878;2023-01-29T01:04:09;100809.06;;;-10.58;83.44
60089;BME280;45961;53.574;55.878;2023-01-29T01:05:13;100818.53;;;-10.47;83.38
60089;BME280;45961;53.574;55.878;2023-01-29T01:06:17;100824.06;;;-10.58;83.49
60089;BME280;45961;53.574;55.878;2023-01-29T01:07:18;100819.50;;;-10.62;83.63
60089;BME280;45961;53.574;55.878;2023-01-29T01:08:19;100825.38;;;-10.61;83.52
60089;BME280;45961;53.574;55.878;2023-01-29T01:09:39;100821.84;;;-10.63;83.61
60089;BME280;45961;53.574;55.878;2023-01-29T01:11:04;100817.72;;;-10.63;83.69
60089;BME280;45961;53.574;55.878;2023-01-29T01:12:06;100819.66;;;-10.60;83.65
60089;BME280;45961;53.574;55.878;2023-01-29T01:13:07;100815.44;;;-10.53;83.75
60089;BME280;45961;53.574;55.878;2023-01-29T01:14:08;100822.97;;;-10.44;83.54
60089;BME280;45961;53.574;55.878;2023-01-29T01:15:09;100816.59;;;-10.49;83.45
60089;BME280;45961;53.574;55.878;2023-01-29T01:16:16;100830.56;;;-10.60;83.45
60089;BME280;45961;53.574;55.878;2023-01-29T01:17:18;100816.28;;;-10.61;83.49
60089;BME280;45961;53.574;55.878;2023-01-29T01:18:19;100818.91;;;-10.59;83.43
60089;BME280;45961;53.574;55.878;2023-01-29T01:19:21;100819.09;;;-10.49;83.62
60089;BME280;45961;53.574;55.878;2023-01-29T01:20:24;100821.16;;;-10.54;83.16
60089;BME280;45961;53.574;55.878;2023-01-29T01:21:25;100814.28;;;-10.48;83.45
60089;BME280;45961;53.574;55.878;2023-01-29T01:22:26;100815.06;;;-10.40;83.40
60089;BME280;45961;53.574;55.878;2023-01-29T01:23:27;100811.59;;;-10.49;83.31
60089;BME280;45961;53.574;55.878;2023-01-29T01:24:29;100806.41;;;-10.59;83.30
60089;BME280;45961;53.574;55.878;2023-01-29T01:25:30;100815.25;;;-10.54;83.38
60089;BME280;45961;53.574;55.878;2023-01-29T01:26:31;100804.41;;;-10.46;83.27
60089;BME280;45961;53.574;55.878;2023-01-29T01:27:32;100815.25;;;-10.54;83.22
60089;BME280;45961;53.574;55.878;2023-01-29T01:28:34;100796.69;;;-10.65;83.24
60089;BME280;45961;53.574;55.878;2023-01-29T01:29:35;100819.81;;;-10.59;83.36
60089;BME280;45961;53.574;55.878;2023-01-29T01:30:36;100816.69;;;-10.65;83.30
60089;BME280;45961;53.574;55.878;2023-01-29T01:31:37;100815.25;;;-10.54;83.17
60089;BME280;45961;53.574;55.878;2023-01-29T01:32:38;100812.63;;;-10.56;83.32
60089;BME280;45961;53.574;55.878;2023-01-29T01:33:40;100816.88;;;-10.55;83.25
60089;BME280;45961;53.574;55.878;2023-01-29T01:34:41;100784.47;;;-10.86;83.36
60089;BME280;45961;53.574;55.878;2023-01-29T01:35:47;100814.34;;;-10.63;83.32
60089;BME280;45961;53.574;55.878;2023-01-29T01:36:48;100817.22;;;-10.76;83.45
60089;BME280;45961;53.574;55.878;2023-01-29T01:37:49;100818.03;;;-10.84;83.67
60089;BME280;45961;53.574;55.878;2023-01-29T01:38:50;100810.63;;;-10.91;83.83
60089;BME280;45961;53.574;55.878;2023-01-29T01:39:51;100804.66;;;-10.85;84.05
60089;BME280;45961;53.574;55.878;2023-01-29T01:40:57;100805.63;;;-10.67;84.02
60089;BME280;45961;53.574;55.878;2023-01-29T01:42:00;100806.41;;;-10.59;83.99
60089;BME280;45961;53.574;55.878;2023-01-29T01:43:01;100810.78;;;-10.65;83.75
60089;BME280;45961;53.574;55.878;2023-01-29T01:44:02;100810.63;;;-10.67;83.82
60089;BME280;45961;53.574;55.878;2023-01-29T01:45:05;100807.81;;;-10.70;83.84
60089;BME280;45961;53.574;55.878;2023-01-29T01:46:07;100810.97;;;-10.64;83.72
60089;BME280;45961;53.574;55.878;2023-01-29T01:47:09;100802.88;;;-10.86;83.73
60089;BME280;45961;53.574;55.878;2023-01-29T01:48:16;100810.38;;;-10.86;83.68
60089;BME280;45961;53.574;55.878;2023-01-29T01:49:20;100810.03;;;-10.73;83.71
60089;BME280;45961;53.574;55.878;2023-01-29T01:51:27;100810.03;;;-10.73;83.74
60089;BME280;45961;53.574;55.878;2023-01-29T01:52:31;100807.25;;;-10.67;83.71
60089;BME280;45961;53.574;55.878;2023-01-29T01:53:44;100801.09;;;-10.62;83.72
60089;BME280;45961;53.574;55.878;2023-01-29T01:54:48;100807.13;;;-10.69;83.58
60089;BME280;45961;53.574;55.878;2023-01-29T01:55:58;100801.06;;;-10.71;83.40
60089;BME280;45961;53.574;55.878;2023-01-29T01:57:09;100795.44;;;-10.77;83.54
60089;BME280;45961;53.574;55.878;2023-01-29T01:58:32;100779.94;;;-10.82;83.58
60089;BME280;45961;53.574;55.878;2023-01-29T01:59:39;100801.06;;;-10.71;83.51
60089;BME280;45961;53.574;55.878;2023-01-29T02:00:40;100803.66;;;-10.78;83.29
60089;BME280;45961;53.574;55.878;2023-01-29T02:01:43;100802.94;;;-10.77;83.46
60089;BME280;45961;53.574;55.878;2023-01-29T02:02:49;100802.34;;;-10.75;83.48
60089;BME280;45961;53.574;55.878;2023-01-29T02:04:14;100798.88;;;-10.68;83.59
60089;BME280;45961;53.574;55.878;2023-01-29T02:05:35;100805.63;;;-10.67;83.48
60089;BME280;45961;53.574;55.878;2023-01-29T02:06:57;100800.63;;;-10.67;83.60
60089;BME280;45961;53.574;55.878;2023-01-29T02:08:36;100785.94;;;-10.64;83.18
60089;BME280;45961;53.574;55.878;2023-01-29T02:10:12;100792.91;;;-10.53;83.37
60089;BME280;45961;53.574;55.878;2023-01-29T02:11:16;100796.72;;;-10.56;83.30
60089;BME280;45961;53.574;55.878;2023-01-29T02:12:17;100778.28;;;-10.65;83.27
60089;BME280;45961;53.574;55.878;2023-01-29T02:13:20;100786.38;;;-10.68;83.26
60089;BME280;45961;53.574;55.878;2023-01-29T02:14:21;100791.31;;;-10.77;83.34
60089;BME280;45961;53.574;55.878;2023-01-29T02:15:22;100803.13;;;-10.67;83.51
60089;BME280;45961;53.574;55.878;2023-01-29T02:16:23;100791.97;;;-10.86;83.41
60089;BME280;45961;53.574;55.878;2023-01-29T02:17:24;100790.91;;;-10.97;83.75
60089;BME280;45961;53.574;55.878;2023-01-29T02:18:25;100801.38;;;-10.92;84.04
60089;BME280;45961;53.574;55.878;2023-01-29T02:20:41;100777.41;;;-10.90;84.26
60089;BME280;45961;53.574;55.878;2023-01-29T02:29:22;100800.91;;;-10.73;83.89
60089;BME280;45961;53.574;55.878;2023-01-29T02:30:35;100807.16;;;-10.85;83.83
60089;BME280;45961;53.574;55.878;2023-01-29T02:31:44;100809.38;;;-10.79;83.98
60089;BME280;45961;53.574;55.878;2023-01-29T02:32:52;100804.44;;;-10.71;84.09
60089;BME280;45961;53.574;55.878;2023-01-29T02:34:21;100808.97;;;-10.75;84.05
60089;BME280;45961;53.574;55.878;2023-01-29T02:35:33;100804.47;;;-10.62;84.09
60089;BME280;45961;53.574;55.878;2023-01-29T02:36:49;100804.03;;;-10.66;84.00
60089;BME280;45961;53.574;55.878;2023-01-29T02:40:29;100798.34;;;-10.81;83.91
60089;BME280;45961;53.574;55.878;2023-01-29T02:44:36;100796.09;;;-10.87;84.37
60089;BME280;45961;53.574;55.878;2023-01-29T02:48:54;100794.75;;;-10.92;84.17
60089;BME280;45961;53.574;55.878;2023-01-29T02:50:07;100792.22;;;-10.76;84.30
60089;BME280;45961;53.574;55.878;2023-01-29T02:51:19;100789.75;;;-10.67;84.27
60089;BME280;45961;53.574;55.878;2023-01-29T02:52:44;100797.22;;;-10.76;84.17
60089;BME280;45961;53.574;55.878;2023-01-29T02:55:19;100785.72;;;-10.74;84.13
60089;BME280;45961;53.574;55.878;2023-01-29T02:56:30;100814.06;;;-10.82;83.97
60089;BME280;45961;53.574;55.878;2023-01-29T02:57:38;100803.09;;;-10.76;84.11
60089;BME280;45961;53.574;55.878;2023-01-29T02:58:45;100796.06;;;-10.71;84.04
60089;BME280;45961;53.574;55.878;2023-01-29T03:00:02;100796.41;;;-10.59;83.92
60089;BME280;45961;53.574;55.878;2023-01-29T03:01:12;100798.03;;;-10.84;83.85
60089;BME280;45961;53.574;55.878;2023-01-29T03:02:20;100808.84;;;-10.77;84.28
60089;BME280;45961;53.574;55.878;2023-01-29T03:03:36;100801.94;;;-10.71;83.87
60089;BME280;45961;53.574;55.878;2023-01-29T03:04:47;100800.44;;;-10.77;83.97
60089;BME280;45961;53.574;55.878;2023-01-29T03:07:05;100795.34;;;-10.61;83.90
60089;BME280;45961;53.574;55.878;2023-01-29T03:08:14;100811.69;;;-10.65;83.87
60089;BME280;45961;53.574;55.878;2023-01-29T03:09:29;100753.31;;;-10.81;83.77
60089;BME280;45961;53.574;55.878;2023-01-29T03:10:38;100791.13;;;-10.54;83.71
60089;BME280;45961;53.574;55.878;2023-01-29T03:11:43;100795.78;;;-10.65;83.57
60089;BME280;45961;53.574;55.878;2023-01-29T03:12:54;100798.44;;;-10.64;83.49
60089;BME280;45961;53.574;55.878;2023-01-29T03:14:04;100802.44;;;-10.57;83.62
60089;BME280;45961;53.574;55.878;2023-01-29T03:15:33;100789.38;;;-10.55;83.48
60089;BME280;45961;53.574;55.878;2023-01-29T03:17:09;100785.22;;;-10.63;83.14
60089;BME280;45961;53.574;55.878;2023-01-29T03:18:11;100792.75;;;-10.54;83.31
60089;BME280;45961;53.574;55.878;2023-01-29T03:19:19;100798.50;;;-10.55;83.05
60089;BME280;45961;53.574;55.878;2023-01-29T03:20:25;100767.03;;;-10.78;83.19
60089;BME280;45961;53.574;55.878;2023-01-29T03:21:41;100791.84;;;-10.63;83.06
60089;BME280;45961;53.574;55.878;2023-01-29T03:23:07;100789.03;;;-10.58;82.96
60089;BME280;45961;53.574;55.878;2023-01-29T03:24:13;100788.59;;;-10.62;82.94
60089;BME280;45961;53.574;55.878;2023-01-29T03:25:35;100790.09;;;-10.56;82.91
60089;BME280;45961;53.574;55.878;2023-01-29T03:27:04;100789.38;;;-10.55;82.86
60089;BME280;45961;53.574;55.878;2023-01-29T03:28:27;100784.38;;;-10.55;82.66
60089;BME280;45961;53.574;55.878;2023-01-29T03:29:49;100808.78;;;-10.61;82.95
60089;BME280;45961;53.574;55.878;2023-01-29T03:31:26;100794.59;;;-10.69;82.97
60089;BME280;45961;53.574;55.878;2023-01-29T03:32:48;100806.56;;;-10.58;82.47
60089;BME280;45961;53.574;55.878;2023-01-29T03:35:08;100793.09;;;-10.42;82.84
60089;BME280;45961;53.574;55.878;2023-01-29T03:36:26;100752.28;;;-10.59;82.78
60089;BME280;45961;53.574;55.878;2023-01-29T03:38:39;100786.00;;;-10.47;82.51
60089;BME280;45961;53.574;55.878;2023-01-29T03:39:42;100793.22;;;-10.50;82.28
60089;BME280;45961;53.574;55.878;2023-01-29T03:40:51;100794.09;;;-10.49;82.54
60089;BME280;45961;53.574;55.878;2023-01-29T03:42:27;100792.50;;;-10.49;82.56
60089;BME280;45961;53.574;55.878;2023-01-29T03:43:46;100779.34;;;-10.55;82.38
60089;BME280;45961;53.574;55.878;2023-01-29T03:47:38;100789.75;;;-10.34;82.29
60089;BME280;45961;53.574;55.878;2023-01-29T03:48:49;100794.16;;;-10.40;82.22
60089;BME280;45961;53.574;55.878;2023-01-29T03:49:59;100795.28;;;-10.46;82.11
60089;BME280;45961;53.574;55.878;2023-01-29T03:51:19;100805.19;;;-10.38;82.21
60089;BME280;45961;53.574;55.878;2023-01-29T03:55:58;100812.03;;;-10.53;82.32
60089;BME280;45961;53.574;55.878;2023-01-29T03:57:08;100800.78;;;-10.41;82.23
60089;BME280;45961;53.574;55.878;2023-01-29T03:59:26;100805.00;;;-10.49;82.19
60089;BME280;45961;53.574;55.878;2023-01-29T04:00:57;100780.63;;;-10.67;82.05
60089;BME280;45961;53.574;55.878;2023-01-29T04:02:09;100806.72;;;-10.56;82.30
60089;BME280;45961;53.574;55.878;2023-01-29T04:03:22;100803.69;;;-10.70;82.20
60089;BME280;45961;53.574;55.878;2023-01-29T04:04:29;100799.28;;;-10.72;82.13
60089;BME280;45961;53.574;55.878;2023-01-29T04:05:39;100807.34;;;-10.50;82.29
60089;BME280;45961;53.574;55.878;2023-01-29T04:06:49;100791.13;;;-10.54;82.21
60089;BME280;45961;53.574;55.878;2023-01-29T04:08:01;100803.50;;;-10.55;82.13
60089;BME280;45961;53.574;55.878;2023-01-29T04:09:15;100822.63;;;-10.56;82.03
60089;BME280;45961;53.574;55.878;2023-01-29T04:10:20;100807.94;;;-10.53;82.20
60089;BME280;45961;53.574;55.878;2023-01-29T04:11:26;100780.44;;;-10.77;82.08
60089;BME280;45961;53.574;55.878;2023-01-29T04:12:35;100813.78;;;-10.61;82.45
60089;BME280;45961;53.574;55.878;2023-01-29T04:13:39;100814.28;;;-10.48;82.31
60089;BME280;45961;53.574;55.878;2023-01-29T04:14:40;100815.03;;;-10.49;82.15
60089;BME280;45961;53.574;55.878;2023-01-29T04:15:55;100806.34;;;-10.43;82.04
60089;BME280;45961;53.574;55.878;2023-01-29T04:17:23;100807.69;;;-10.38;82.08
60089;BME280;45961;53.574;55.878;2023-01-29T04:18:37;100801.44;;;-10.51;81.74
60089;BME280;45961;53.574;55.878;2023-01-29T04:19:44;100799.69;;;-10.52;81.68
60089;BME280;45961;53.574;55.878;2023-01-29T04:20:45;100801.31;;;-10.52;81.62
60089;BME280;45961;53.574;55.878;2023-01-29T04:21:47;100801.97;;;-10.62;81.73
60089;BME280;45961;53.574;55.878;2023-01-29T04:22:50;100801.94;;;-10.71;81.80
60089;BME280;45961;53.574;55.878;2023-01-29T04:23:52;100796.97;;;-10.62;82.09
60089;BME280;45961;53.574;55.878;2023-01-29T04:24:54;100800.00;;;-10.49;82.12
60089;BME280;45961;53.574;55.878;2023-01-29T04:31:22;100807.13;;;-10.69;81.82
60089;BME280;45961;53.574;55.878;2023-01-29T04:35:20;100795.84;;;-10.57;82.09
60089;BME280;45961;53.574;55.878;2023-01-29T04:38:10;100796.41;;;-10.59;81.80
60089;BME280;45961;53.574;55.878;2023-01-29T04:39:24;100810.53;;;-10.60;81.64
60089;BME280;45961;53.574;55.878;2023-01-29T04:40:38;100808.41;;;-10.73;81.72
60089;BME280;45961;53.574;55.878;2023-01-29T04:41:58;100807.25;;;-10.67;81.67
60089;BME280;45961;53.574;55.878;2023-01-29T04:43:12;100798.50;;;-10.55;81.63
60089;BME280;45961;53.574;55.878;2023-01-29T04:44:32;100792.75;;;-10.54;81.35
60089;BME280;45961;53.574;55.878;2023-01-29T04:49:42;100791.50;;;-10.33;80.66
60089;BME280;45961;53.574;55.878;2023-01-29T04:51:05;100790.91;;;-10.39;80.30
60089;BME280;45961;53.574;55.878;2023-01-29T04:55:12;100794.88;;;-10.41;80.21
60089;BME280;45961;53.574;55.878;2023-01-29T04:57:48;100802.75;;;-10.54;80.07
60089;BME280;45961;53.574;55.878;2023-01-29T04:58:56;100792.44;;;-10.57;80.24
60089;BME280;45961;53.574;55.878;2023-01-29T05:01:11;100792.16;;;-10.60;80.26
60089;BME280;45961;53.574;55.878;2023-01-29T05:02:13;100800.72;;;-10.50;80.18
60089;BME280;45961;53.574;55.878;2023-01-29T05:03:29;100776.00;;;-10.80;80.06
60089;BME280;45961;53.574;55.878;2023-01-29T05:04:40;100787.06;;;-10.45;80.18
60089;BME280;45961;53.574;55.878;2023-01-29T05:06:08;100717.69;;;-10.96;80.10
60089;BME280;45961;53.574;55.878;2023-01-29T05:07:13;100790.59;;;-10.76;80.14
60089;BME280;45961;53.574;55.878;2023-01-29T05:08:17;100797.03;;;-10.78;80.19
60089;BME280;45961;53.574;55.878;2023-01-29T05:09:20;100723.84;;;-11.01;80.00
60089;BME280;45961;53.574;55.878;2023-01-29T05:10:24;100726.78;;;-10.97;79.99
60089;BME280;45961;53.574;55.878;2023-01-29T05:11:26;100715.13;;;-11.05;80.15
60089;BME280;45961;53.574;55.878;2023-01-29T05:12:28;100785.53;;;-10.60;80.29
60089;BME280;45961;53.574;55.878;2023-01-29T05:21:34;100695.56;;;-11.09;80.10
60089;BME280;45961;53.574;55.878;2023-01-29T05:23:37;100745.16;;;-10.72;80.32
60089;BME280;45961;53.574;55.878;2023-01-29T05:28:25;100746.06;;;-10.62;79.95
60089;BME280;45961;53.574;55.878;2023-01-29T05:29:29;100782.06;;;-10.45;80.02
60089;BME280;45961;53.574;55.878;2023-01-29T05:32:07;100769.66;;;-10.52;79.89
60089;BME280;45961;53.574;55.878;2023-01-29T05:34:05;100767.31;;;-10.50;79.95
60089;BME280;45961;53.574;55.878;2023-01-29T05:35:26;100774.38;;;-10.46;79.83
60089;BME280;45961;53.574;55.878;2023-01-29T05:36:28;100779.91;;;-10.24;79.79
60089;BME280;45961;53.574;55.878;2023-01-29T05:37:29;100775.63;;;-10.25;79.66
60089;BME280;45961;53.574;55.878;2023-01-29T05:38:30;100777.25;;;-10.17;79.61
60089;BME280;45961;53.574;55.878;2023-01-29T05:39:31;100770.06;;;-10.14;79.45
60089;BME280;45961;53.574;55.878;2023-01-29T05:40:35;100785.25;;;-10.12;79.37
60089;BME280;45961;53.574;55.878;2023-01-29T05:41:36;100769.16;;;-10.14;79.17
60089;BME280;45961;53.574;55.878;2023-01-29T05:42:38;100768.31;;;-10.06;79.15
60089;BME280;45961;53.574;55.878;2023-01-29T05:43:39;100776.00;;;-10.05;78.96
60089;BME280;45961;53.574;55.878;2023-01-29T05:44:40;100775.56;;;-10.01;78.73
60089;BME280;45961;53.574;55.878;2023-01-29T05:45:42;100781.00;;;-10.05;78.69
60089;BME280;45961;53.574;55.878;2023-01-29T05:47:08;100779.06;;;-10.07;78.54
60089;BME280;45961;53.574;55.878;2023-01-29T05:48:09;100787.88;;;-10.11;78.47
60089;BME280;45961;53.574;55.878;2023-01-29T05:49:13;100782.31;;;-10.08;78.52
60089;BME280;45961;53.574;55.878;2023-01-29T05:50:15;100779.94;;;-10.07;78.45
60089;BME280;45961;53.574;55.878;2023-01-29T05:51:16;100776.81;;;-10.13;78.36
60089;BME280;45961;53.574;55.878;2023-01-29T05:52:23;100776.97;;;-10.29;78.29
60089;BME280;45961;53.574;55.878;2023-01-29T05:53:27;100785.66;;;-10.25;78.38
60089;BME280;45961;53.574;55.878;2023-01-29T05:54:38;100784.34;;;-10.13;78.59
60089;BME280;45961;53.574;55.878;2023-01-29T05:55:55;100784.19;;;-10.14;78.42
60089;BME280;45961;53.574;55.878;2023-01-29T05:57:03;100686.78;;;-10.63;78.51
60089;BME280;45961;53.574;55.878;2023-01-29T05:58:13;100781.56;;;-10.07;78.37
60089;BME280;45961;53.574;55.878;2023-01-29T05:59:19;100737.31;;;-10.41;78.37
60089;BME280;45961;53.574;55.878;2023-01-29T06:00:23;100756.34;;;-10.26;78.24
60089;BME280;45961;53.574;55.878;2023-01-29T06:01:30;100776.00;;;-10.05;78.27
60089;BME280;45961;53.574;55.878;2023-01-29T06:03:04;100747.97;;;-10.18;78.18
60089;BME280;45961;53.574;55.878;2023-01-29T06:04:07;100784.63;;;-10.10;77.86
60089;BME280;45961;53.574;55.878;2023-01-29T06:05:21;100790.72;;;-10.08;77.89
60089;BME280;45961;53.574;55.878;2023-01-29T06:06:22;100781.59;;;-9.99;77.94
60089;BME280;45961;53.574;55.878;2023-01-29T06:07:30;100790.72;;;-10.08;77.78
60089;BME280;45961;53.574;55.878;2023-01-29T06:08:42;100777.59;;;-10.05;77.79
60089;BME280;45961;53.574;55.878;2023-01-29T06:09:55;100764.59;;;-10.27;77.73
60089;BME280;45961;53.574;55.878;2023-01-29T06:10:56;100770.59;;;-10.34;77.91
60089;BME280;45961;53.574;55.878;2023-01-29T06:12:04;100764.75;;;-10.17;78.18
60089;BME280;45961;53.574;55.878;2023-01-29T06:13:14;100781.72;;;-10.06;77.99
60089;BME280;45961;53.574;55.878;2023-01-29T06:14:41;100786.00;;;-10.05;77.88
60089;BME280;45961;53.574;55.878;2023-01-29T06:15:45;100786.84;;;-10.13;77.67
60089;BME280;45961;53.574;55.878;2023-01-29T06:16:46;100778.19;;;-10.08;77.85
60089;BME280;45961;53.574;55.878;2023-01-29T06:18:08;100791.72;;;-10.06;77.63
60089;BME280;45961;53.574;55.878;2023-01-29T06:19:28;100741.88;;;-10.37;77.73
60089;BME280;45961;53.574;55.878;2023-01-29T06:20:33;100722.34;;;-10.24;77.79
60089;BME280;45961;53.574;55.878;2023-01-29T06:21:37;100789.75;;;-10.17;77.55
60089;BME280;45961;53.574;55.878;2023-01-29T06:22:38;100789.81;;;-10.08;77.60
60089;BME280;45961;53.574;55.878;2023-01-29T06:23:45;100787.78;;;-10.04;77.46
60089;BME280;45961;53.574;55.878;2023-01-29T06:24:53;100781.13;;;-10.03;77.51
60089;BME280;45961;53.574;55.878;2023-01-29T06:26:08;100775.91;;;-10.22;77.37
60089;BME280;45961;53.574;55.878;2023-01-29T06:27:13;100764.03;;;-10.07;77.46
60089;BME280;45961;53.574;55.878;2023-01-29T06:28:14;100785.59;;;-9.92;77.31
60089;BME280;45961;53.574;55.878;2023-01-29T06:29:15;100788.66;;;-9.95;77.21
60089;BME280;45961;53.574;55.878;2023-01-29T06:30:16;100790.44;;;-9.94;77.02
60089;BME280;45961;53.574;55.878;2023-01-29T06:31:17;100759.47;;;-10.29;76.81
60089;BME280;45961;53.574;55.878;2023-01-29T06:32:18;100779.41;;;-9.96;77.05
60089;BME280;45961;53.574;55.878;2023-01-29T06:33:19;100777.63;;;-9.97;76.86
60089;BME280;45961;53.574;55.878;2023-01-29T06:34:20;100774.63;;;-10.10;76.83
60089;BME280;45961;53.574;55.878;2023-01-29T06:35:21;100786.88;;;-10.04;76.82
60089;BME280;45961;53.574;55.878;2023-01-29T06:36:22;100785.06;;;-10.14;76.83
60089;BME280;45961;53.574;55.878;2023-01-29T06:37:23;100787.16;;;-10.10;76.81
60089;BME280;45961;53.574;55.878;2023-01-29T06:38:24;100790.88;;;-9.98;77.00
60089;BME280;45961;53.574;55.878;2023-01-29T06:39:31;100780.59;;;-9.92;76.87
60089;BME280;45961;53.574;55.878;2023-01-29T06:40:33;100786.03;;;-9.87;76.76
60089;BME280;45961;53.574;55.878;2023-01-29T06:41:38;100731.94;;;-10.62;76.65
60089;BME280;45961;53.574;55.878;2023-01-29T06:42:39;100780.13;;;-9.97;76.88
60089;BME280;45961;53.574;55.878;2023-01-29T06:43:43;100756.72;;;-9.88;76.85
60089;BME280;45961;53.574;55.878;2023-01-29T06:44:44;100773.22;;;-9.90;76.63
60089;BME280;45961;53.574;55.878;2023-01-29T06:45:47;100772.91;;;-9.94;76.68
60089;BME280;45961;53.574;55.878;2023-01-29T06:46:48;100779.28;;;-9.88;76.68
60089;BME280;45961;53.574;55.878;2023-01-29T06:47:49;100771.56;;;-9.99;76.48
60089;BME280;45961;53.574;55.878;2023-01-29T06:48:50;100773.22;;;-9.90;76.65